Flight Track Log - Related Links

Times and Time Zones

All times are in EDT time to prevent confusion due to time zone crossing. See the RPA3436 flight status page for this flight to view local times or setup timezone preferences in your user account.

Time Position Orientation Groundspeed Altitude Reporting Facility
EDT Latitude Longitude Course Direction KTS MPH feet Rate Location/Type
Thu 07:53:00 AM 33.1623 -79.9500 North  Level FlightAware Approximate
Thu 07:53:15 AM 32.9294 -79.9400 13° North 253 291 7,300  Level Jacksonville Center
Thu 07:54:00 AM 33.2564 -79.9254 North  Level FlightAware Approximate
Thu 07:54:15 AM 33.0086 -79.9325 North 258 297 10,300  Level Jacksonville Center
Thu 07:55:00 AM 33.3482 -79.8925 23° Northeast  Level FlightAware Approximate
Thu 07:55:15 AM 33.1028 -79.9392 357° North 293 337 12,800  Level Jacksonville Center
Thu 07:56:00 AM 33.4422 -79.8682 North  Level FlightAware Approximate
Thu 07:56:15 AM 33.2133 -79.9406 359° North 338 389 16,200  Level Jacksonville Center
Thu 07:57:00 AM 33.5362 -79.8421 13° North  Level FlightAware Approximate
Thu 07:57:15 AM 33.3150 -79.9175 11° North 354 407 18,400  Level Jacksonville Center
Thu 07:58:00 AM 33.6301 -79.8152 13° North  Level FlightAware Approximate
Thu 07:58:15 AM 33.4250 -79.8864 13° North 378 435 20,600  Level Jacksonville Center
Thu 07:59:15 AM 33.5328 -79.8553 14° North 392 451 23,000 2,150 Climbing Jacksonville Center
Thu 08:00:15 AM 33.6428 -79.8264 12° North 397 457 24,900 1,000 Climbing Jacksonville Center
Thu 08:01:15 AM 33.7567 -79.7925 14° North 403 464 25,000 50 Climbing Jacksonville Center
Thu 08:02:15 AM 33.8661 -79.7486 18° North 411 473 25,000  Level Jacksonville Center
Thu 08:03:15 AM 33.9450 -79.6558 44° Northeast 390 449 25,000 400 Level Jacksonville Center
Thu 08:04:15 AM 34.0261 -79.5600 44° Northeast 395 455 25,800 1,000 Climbing Jacksonville Center
Thu 08:05:15 AM 34.1069 -79.4592 46° Northeast 401 461 27,000 652 Climbing Jacksonville Center
Thu 08:07:19 AM 34.2656 -79.2708 44° Northeast 422 486 27,800 778 Climbing Washington Center
Thu 08:08:20 AM 34.3742 -79.2000 28° Northeast 432 497 29,400 1,500 Climbing Washington Center
Thu 08:09:19 AM 34.4844 -79.1394 24° Northeast 432 497 30,800 800 Climbing Washington Center
Thu 08:10:20 AM 34.5925 -79.0761 26° Northeast 432 497 31,000 99 Climbing Washington Center
Thu 08:11:20 AM 34.6922 -79.0197 25° Northeast 416 479 31,000  Level Washington Center
Thu 08:12:21 AM 34.7919 -78.9606 26° Northeast 397 457 31,000  Level Washington Center
Thu 08:13:18 AM 34.8939 -78.9017 25° Northeast 392 451 31,000  Level Washington Center
Thu 08:14:19 AM 34.9936 -78.8422 26° Northeast 392 451 31,000  Level Washington Center
Thu 08:15:20 AM 35.0953 -78.7856 25° Northeast 392 451 31,000  Level Washington Center
Thu 08:16:19 AM 35.1950 -78.7258 26° Northeast 387 445 31,000  Level Washington Center
Thu 08:17:19 AM 35.2944 -78.6661 26° Northeast 387 445 31,000  Level Washington Center
Thu 08:18:20 AM 35.4069 -78.5939 28° Northeast 400 460 31,000  Level Washington Center
Thu 08:19:19 AM 35.4978 -78.5439 24° Northeast 400 460 31,000 -350 Level Washington Center
Thu 08:20:20 AM 35.6206 -78.4742 25° Northeast 424 488 30,300 -750 Descending Washington Center
Thu 08:21:19 AM 35.7222 -78.4139 26° Northeast 424 488 29,500 -850 Descending Washington Center
Thu 08:22:20 AM 35.8258 -78.3511 26° Northeast 424 488 28,600 -857 Descending Washington Center
Thu 08:23:18 AM 35.9297 -78.2881 26° Northeast 414 476 27,800 -756 Descending Washington Center
Thu 08:24:19 AM 36.0333 -78.2272 25° Northeast 408 470 27,100 -397 Descending Washington Center
Thu 08:25:19 AM 36.1347 -78.1664 26° Northeast 408 470 27,000 -49 Descending Washington Center
Thu 08:26:21 AM 36.2361 -78.1053 26° Northeast 408 470 27,000  Level Washington Center
Thu 08:27:21 AM 36.3375 -78.0442 26° Northeast 408 470 27,000  Level Washington Center
Thu 08:28:19 AM 36.4283 -77.9875 27° Northeast 408 470 27,000  Level Washington Center
Thu 08:29:21 AM 36.5403 -77.9186 26° Northeast 422 486 27,000  Level Washington Center
Thu 08:30:18 AM 36.6586 -77.8472 26° Northeast 446 513 27,000 -1,017 Level Washington Center
Thu 08:31:19 AM 36.7747 -77.7753 26° Northeast 458 527 25,000 -1,574 Descending Washington Center
Thu 08:32:20 AM 36.8906 -77.7136 23° Northeast 453 521 23,800 -1,180 Descending Washington Center
Thu 08:33:21 AM 37.0103 -77.6675 17° North 453 521 22,600 -908 Descending Washington Center
Thu 08:34:19 AM 37.1300 -77.6211 17° North 448 516 22,000 -305 Descending Washington Center
Thu 08:35:19 AM 37.2497 -77.5722 18° North 443 510 22,000  Level Washington Center
Thu 08:36:20 AM 37.3692 -77.5256 17° North 443 510 22,000  Level Washington Center
Thu 08:37:20 AM 37.4889 -77.4764 18° North 443 510 22,000 -99 Level Washington Center
Thu 08:38:21 AM 37.6086 -77.4294 17° North 443 510 21,800 -1,109 Descending Washington Center
Thu 08:39:19 AM 37.7261 -77.3850 17° North 443 510 19,800 -1,966 Descending Washington Center
Thu 08:40:20 AM 37.8372 -77.3403 18° North 437 503 17,900 -1,785 Descending Washington Center
Thu 08:41:20 AM 37.9442 -77.2928 19° North 418 481 16,200 -1,835 Descending Washington Center
Thu 08:42:21 AM 38.0492 -77.2583 14° North 402 463 14,200 -1,884 Descending Washington Center
Thu 08:43:21 AM 38.1497 -77.2156 18° North 385 443 12,400 -1,831 Descending Washington Center
Thu 08:44:19 AM 38.2503 -77.1756 17° North 378 435 10,600 -1,210 Descending Washington Center
Thu 08:45:20 AM 38.3489 -77.1458 13° North 372 428 10,000 -300 Descending Washington Center
Thu 08:46:19 AM 38.4450 -77.1267 North 359 413 10,000  Level Washington Center
Thu 08:47:20 AM 38.5306 -77.1097 North 328 377 10,000 -246 Level Washington Center
Thu 08:48:21 AM 38.6122 -77.0903 11° North 311 358 9,500 -1,290 Descending Washington Center
Thu 08:48:53 AM 38.6667 -77.0667 19° North 305 351 8,000 -2,129 Descending Potomac TRACON
Thu 08:49:54 AM 38.7500 -77.0667 360° North 299 344 6,200 -1,043 Descending Potomac TRACON
Thu 08:50:48 AM 38.8167 -77.1000 339° North 295 339 6,000 -316 Descending Potomac TRACON
Thu 08:51:48 AM 38.8667 -77.1667 314° West 243 280 5,600 -550 Descending Potomac TRACON
Thu 08:52:48 AM 38.9167 -77.2167 322° Northwest 205 236 4,900 -1,000 Descending Potomac TRACON
Thu 08:53:42 AM 38.9500 -77.2333 339° North 230 265 3,700 -1,000 Descending Potomac TRACON
Thu 08:54:42 AM 38.9833 -77.1667 57° Northeast 201 231 3,000 -700 Descending Potomac TRACON

Login

Don't have an account? Register now (free) for customized features, flight alerts, and more!